Station: EHBK - 19/08/2018 01:55Z (il y a 31 minutes)
EHBK 190155Z AUTO 20005KT 9999 NCD 15/13 Q1022
Vent du 200º - 5 kt
Visibilité > 10 km
Pas de nuages détectés
Température: +15ºC - Point de rosée: +13ºC - QNH: 1022 hPa